sensor_id;sensor_type;location;lat;lon;timestamp;temperature;humidity
32660;DHT22;19064;47.912;12.308;2022-07-15T00:02:08;21.20;99.40
32660;DHT22;19064;47.912;12.308;2022-07-15T00:04:37;21.20;97.70
32660;DHT22;19064;47.912;12.308;2022-07-15T00:07:05;20.80;98.50
32660;DHT22;19064;47.912;12.308;2022-07-15T00:09:33;20.80;98.00
32660;DHT22;19064;47.912;12.308;2022-07-15T00:12:20;20.50;99.50
32660;DHT22;19064;47.912;12.308;2022-07-15T00:14:48;20.30;98.90
32660;DHT22;19064;47.912;12.308;2022-07-15T00:17:15;20.60;99.90
32660;DHT22;19064;47.912;12.308;2022-07-15T00:19:42;20.80;99.90
32660;DHT22;19064;47.912;12.308;2022-07-15T00:22:09;20.80;99.90
32660;DHT22;19064;47.912;12.308;2022-07-15T00:24:37;20.80;99.90
32660;DHT22;19064;47.912;12.308;2022-07-15T00:27:04;20.70;99.00
32660;DHT22;19064;47.912;12.308;2022-07-15T00:29:34;20.70;98.30
32660;DHT22;19064;47.912;12.308;2022-07-15T00:32:02;20.70;98.80
32660;DHT22;19064;47.912;12.308;2022-07-15T00:34:31;20.70;98.10
32660;DHT22;19064;47.912;12.308;2022-07-15T00:36:59;20.60;99.30
32660;DHT22;19064;47.912;12.308;2022-07-15T00:39:27;20.30;98.40
32660;DHT22;19064;47.912;12.308;2022-07-15T00:41:55;20.30;97.00
32660;DHT22;19064;47.912;12.308;2022-07-15T00:44:24;20.10;99.60
32660;DHT22;19064;47.912;12.308;2022-07-15T00:46:53;20.00;99.90
32660;DHT22;19064;47.912;12.308;2022-07-15T00:49:21;19.90;99.90
32660;DHT22;19064;47.912;12.308;2022-07-15T00:51:51;20.20;99.90
32660;DHT22;19064;47.912;12.308;2022-07-15T00:54:23;20.40;99.90
32660;DHT22;19064;47.912;12.308;2022-07-15T00:56:54;20.30;99.90
32660;DHT22;19064;47.912;12.308;2022-07-15T00:59:24;20.00;99.90
32660;DHT22;19064;47.912;12.308;2022-07-15T01:01:54;19.80;99.90
32660;DHT22;19064;47.912;12.308;2022-07-15T01:04:23;20.00;99.90
32660;DHT22;19064;47.912;12.308;2022-07-15T01:06:52;20.10;99.90
32660;DHT22;19064;47.912;12.308;2022-07-15T01:09:20;20.00;99.90
32660;DHT22;19064;47.912;12.308;2022-07-15T01:11:49;19.60;99.90
32660;DHT22;19064;47.912;12.308;2022-07-15T01:14:17;19.40;99.90
32660;DHT22;19064;47.912;12.308;2022-07-15T01:16:45;19.30;99.90
32660;DHT22;19064;47.912;12.308;2022-07-15T01:19:18;19.10;99.90
32660;DHT22;19064;47.912;12.308;2022-07-15T01:21:48;19.00;99.90
32660;DHT22;19064;47.912;12.308;2022-07-15T01:24:16;19.00;99.90
32660;DHT22;19064;47.912;12.308;2022-07-15T01:26:44;18.80;99.90
32660;DHT22;19064;47.912;12.308;2022-07-15T01:29:12;18.70;99.90
32660;DHT22;19064;47.912;12.308;2022-07-15T01:31:39;18.60;99.90
32660;DHT22;19064;47.912;12.308;2022-07-15T01:34:06;18.40;99.90
32660;DHT22;19064;47.912;12.308;2022-07-15T01:36:33;18.20;99.90
32660;DHT22;19064;47.912;12.308;2022-07-15T01:39:04;18.30;99.90
32660;DHT22;19064;47.912;12.308;2022-07-15T01:41:32;18.30;99.90
32660;DHT22;19064;47.912;12.308;2022-07-15T01:44:00;18.20;99.90
32660;DHT22;19064;47.912;12.308;2022-07-15T01:46:28;18.20;99.90
32660;DHT22;19064;47.912;12.308;2022-07-15T01:48:56;18.40;99.90
32660;DHT22;19064;47.912;12.308;2022-07-15T01:51:42;18.40;99.90
32660;DHT22;19064;47.912;12.308;2022-07-15T01:54:11;18.30;99.90
32660;DHT22;19064;47.912;12.308;2022-07-15T01:56:39;18.30;99.90
32660;DHT22;19064;47.912;12.308;2022-07-15T01:59:07;18.10;99.90
32660;DHT22;19064;47.912;12.308;2022-07-15T02:01:35;18.20;99.90
32660;DHT22;19064;47.912;12.308;2022-07-15T02:04:04;18.20;99.90
32660;DHT22;19064;47.912;12.308;2022-07-15T02:06:35;18.10;99.90
32660;DHT22;19064;47.912;12.308;2022-07-15T02:09:03;17.90;99.90
32660;DHT22;19064;47.912;12.308;2022-07-15T02:11:33;17.80;99.90
32660;DHT22;19064;47.912;12.308;2022-07-15T02:14:02;17.50;99.90
32660;DHT22;19064;47.912;12.308;2022-07-15T02:16:31;17.50;99.90
32660;DHT22;19064;47.912;12.308;2022-07-15T02:18:59;17.30;99.90
32660;DHT22;19064;47.912;12.308;2022-07-15T02:21:28;17.50;99.90
32660;DHT22;19064;47.912;12.308;2022-07-15T02:23:56;17.90;99.90
32660;DHT22;19064;47.912;12.308;2022-07-15T02:26:28;18.00;99.90
32660;DHT22;19064;47.912;12.308;2022-07-15T02:28:57;17.60;99.90
32660;DHT22;19064;47.912;12.308;2022-07-15T02:31:26;17.40;99.90
32660;DHT22;19064;47.912;12.308;2022-07-15T02:33:55;17.20;99.90
32660;DHT22;19064;47.912;12.308;2022-07-15T02:36:27;17.30;99.90
32660;DHT22;19064;47.912;12.308;2022-07-15T02:38:55;17.10;99.90
32660;DHT22;19064;47.912;12.308;2022-07-15T02:41:24;17.00;99.90
32660;DHT22;19064;47.912;12.308;2022-07-15T02:43:51;17.00;99.90
32660;DHT22;19064;47.912;12.308;2022-07-15T02:46:20;16.90;99.90
32660;DHT22;19064;47.912;12.308;2022-07-15T02:48:48;17.10;99.90
32660;DHT22;19064;47.912;12.308;2022-07-15T02:51:16;17.10;99.90
32660;DHT22;19064;47.912;12.308;2022-07-15T02:53:44;16.90;99.90
32660;DHT22;19064;47.912;12.308;2022-07-15T02:56:12;17.10;99.90
32660;DHT22;19064;47.912;12.308;2022-07-15T02:58:40;17.00;99.90
32660;DHT22;19064;47.912;12.308;2022-07-15T03:01:08;17.00;99.90
32660;DHT22;19064;47.912;12.308;2022-07-15T03:03:38;17.40;99.90
32660;DHT22;19064;47.912;12.308;2022-07-15T03:06:06;17.20;99.90
32660;DHT22;19064;47.912;12.308;2022-07-15T03:08:34;17.10;99.90
32660;DHT22;19064;47.912;12.308;2022-07-15T03:11:03;17.10;99.90
32660;DHT22;19064;47.912;12.308;2022-07-15T03:13:31;17.00;99.90
32660;DHT22;19064;47.912;12.308;2022-07-15T03:16:00;16.90;99.90
32660;DHT22;19064;47.912;12.308;2022-07-15T03:18:28;17.10;99.90
32660;DHT22;19064;47.912;12.308;2022-07-15T03:20:57;17.10;99.90
32660;DHT22;19064;47.912;12.308;2022-07-15T03:23:25;16.90;99.90
32660;DHT22;19064;47.912;12.308;2022-07-15T03:25:53;16.80;99.90
32660;DHT22;19064;47.912;12.308;2022-07-15T03:28:21;16.70;99.90
32660;DHT22;19064;47.912;12.308;2022-07-15T03:30:49;16.80;99.90
32660;DHT22;19064;47.912;12.308;2022-07-15T03:33:17;16.90;99.90
32660;DHT22;19064;47.912;12.308;2022-07-15T03:35:45;17.00;99.90
32660;DHT22;19064;47.912;12.308;2022-07-15T03:38:15;16.90;99.90
32660;DHT22;19064;47.912;12.308;2022-07-15T03:40:43;17.10;99.90
32660;DHT22;19064;47.912;12.308;2022-07-15T03:43:11;17.10;99.90
32660;DHT22;19064;47.912;12.308;2022-07-15T03:45:41;17.00;99.90
32660;DHT22;19064;47.912;12.308;2022-07-15T03:48:09;16.80;99.90
32660;DHT22;19064;47.912;12.308;2022-07-15T03:50:39;16.70;99.90
32660;DHT22;19064;47.912;12.308;2022-07-15T03:53:06;16.70;99.90
32660;DHT22;19064;47.912;12.308;2022-07-15T03:55:34;16.80;99.90
32660;DHT22;19064;47.912;12.308;2022-07-15T03:58:03;16.60;99.90
32660;DHT22;19064;47.912;12.308;2022-07-15T04:00:31;16.60;99.90
32660;DHT22;19064;47.912;12.308;2022-07-15T04:02:59;16.60;99.90
32660;DHT22;19064;47.912;12.308;2022-07-15T04:05:27;16.80;99.90
32660;DHT22;19064;47.912;12.308;2022-07-15T04:07:55;17.00;99.90
32660;DHT22;19064;47.912;12.308;2022-07-15T04:10:24;16.90;99.90
32660;DHT22;19064;47.912;12.308;2022-07-15T04:12:55;16.80;99.90
32660;DHT22;19064;47.912;12.308;2022-07-15T04:15:23;16.70;99.90
32660;DHT22;19064;47.912;12.308;2022-07-15T04:17:51;16.40;99.90
32660;DHT22;19064;47.912;12.308;2022-07-15T04:20:20;16.40;99.90
32660;DHT22;19064;47.912;12.308;2022-07-15T04:22:48;16.40;99.90
32660;DHT22;19064;47.912;12.308;2022-07-15T04:25:17;16.40;99.90
32660;DHT22;19064;47.912;12.308;2022-07-15T04:27:47;16.40;99.90
32660;DHT22;19064;47.912;12.308;2022-07-15T04:30:17;16.40;99.90
32660;DHT22;19064;47.912;12.308;2022-07-15T04:32:45;16.60;99.90
32660;DHT22;19064;47.912;12.308;2022-07-15T04:35:13;16.80;99.90
32660;DHT22;19064;47.912;12.308;2022-07-15T04:37:43;17.00;99.90
32660;DHT22;19064;47.912;12.308;2022-07-15T04:40:12;17.00;99.90
32660;DHT22;19064;47.912;12.308;2022-07-15T04:42:40;17.10;99.90
32660;DHT22;19064;47.912;12.308;2022-07-15T04:45:09;17.30;99.90
32660;DHT22;19064;47.912;12.308;2022-07-15T04:47:38;17.30;99.90
32660;DHT22;19064;47.912;12.308;2022-07-15T04:50:07;17.30;99.90
32660;DHT22;19064;47.912;12.308;2022-07-15T04:52:53;17.30;99.90
32660;DHT22;19064;47.912;12.308;2022-07-15T04:55:21;17.40;99.90
32660;DHT22;19064;47.912;12.308;2022-07-15T04:57:48;17.30;99.90
32660;DHT22;19064;47.912;12.308;2022-07-15T05:00:17;17.40;99.90
32660;DHT22;19064;47.912;12.308;2022-07-15T05:02:46;17.50;99.90
32660;DHT22;19064;47.912;12.308;2022-07-15T05:05:13;17.50;99.90
32660;DHT22;19064;47.912;12.308;2022-07-15T05:07:40;17.60;99.90
32660;DHT22;19064;47.912;12.308;2022-07-15T05:10:08;17.60;99.90
32660;DHT22;19064;47.912;12.308;2022-07-15T05:12:37;17.70;99.90
32660;DHT22;19064;47.912;12.308;2022-07-15T05:15:06;17.90;99.90
32660;DHT22;19064;47.912;12.308;2022-07-15T05:17:35;18.10;99.90
32660;DHT22;19064;47.912;12.308;2022-07-15T05:20:05;18.10;99.90
32660;DHT22;19064;47.912;12.308;2022-07-15T05:22:33;18.30;99.90
32660;DHT22;19064;47.912;12.308;2022-07-15T05:25:01;18.30;99.90
32660;DHT22;19064;47.912;12.308;2022-07-15T05:27:29;18.40;99.90
32660;DHT22;19064;47.912;12.308;2022-07-15T05:29:57;18.50;99.90
32660;DHT22;19064;47.912;12.308;2022-07-15T05:32:25;18.60;99.90
32660;DHT22;19064;47.912;12.308;2022-07-15T05:34:53;18.70;99.90
32660;DHT22;19064;47.912;12.308;2022-07-15T05:37:23;18.80;99.90
32660;DHT22;19064;47.912;12.308;2022-07-15T05:39:50;18.80;99.90
32660;DHT22;19064;47.912;12.308;2022-07-15T05:42:21;18.80;99.90
32660;DHT22;19064;47.912;12.308;2022-07-15T05:44:49;18.80;99.90
32660;DHT22;19064;47.912;12.308;2022-07-15T05:47:17;18.80;99.90
32660;DHT22;19064;47.912;12.308;2022-07-15T05:49:45;18.60;99.90
32660;DHT22;19064;47.912;12.308;2022-07-15T05:52:13;18.60;99.90
32660;DHT22;19064;47.912;12.308;2022-07-15T05:54:43;18.60;99.90
32660;DHT22;19064;47.912;12.308;2022-07-15T05:57:11;18.70;99.90
32660;DHT22;19064;47.912;12.308;2022-07-15T05:59:39;18.70;99.90
32660;DHT22;19064;47.912;12.308;2022-07-15T06:02:07;18.80;99.90
32660;DHT22;19064;47.912;12.308;2022-07-15T06:04:35;18.80;99.90
32660;DHT22;19064;47.912;12.308;2022-07-15T06:07:06;18.90;99.90
32660;DHT22;19064;47.912;12.308;2022-07-15T06:09:34;19.00;99.90
32660;DHT22;19064;47.912;12.308;2022-07-15T06:12:04;19.00;99.90
32660;DHT22;19064;47.912;12.308;2022-07-15T06:14:32;19.00;99.90
32660;DHT22;19064;47.912;12.308;2022-07-15T06:17:00;19.10;99.90
32660;DHT22;19064;47.912;12.308;2022-07-15T06:19:27;19.00;99.90
32660;DHT22;19064;47.912;12.308;2022-07-15T06:21:54;19.00;99.90
32660;DHT22;19064;47.912;12.308;2022-07-15T06:24:22;19.00;99.90
32660;DHT22;19064;47.912;12.308;2022-07-15T06:26:51;19.10;99.90
32660;DHT22;19064;47.912;12.308;2022-07-15T06:29:24;19.20;99.90
32660;DHT22;19064;47.912;12.308;2022-07-15T06:31:52;19.20;99.90
32660;DHT22;19064;47.912;12.308;2022-07-15T06:34:20;19.10;99.90
32660;DHT22;19064;47.912;12.308;2022-07-15T06:36:48;19.10;99.90
32660;DHT22;19064;47.912;12.308;2022-07-15T06:39:18;19.20;99.90
32660;DHT22;19064;47.912;12.308;2022-07-15T06:41:53;19.20;99.90
32660;DHT22;19064;47.912;12.308;2022-07-15T06:44:23;19.20;99.90
32660;DHT22;19064;47.912;12.308;2022-07-15T06:46:58;19.30;99.90
32660;DHT22;19064;47.912;12.308;2022-07-15T06:49:26;19.40;99.90
32660;DHT22;19064;47.912;12.308;2022-07-15T06:51:54;19.60;99.90
32660;DHT22;19064;47.912;12.308;2022-07-15T06:54:22;19.60;99.90
32660;DHT22;19064;47.912;12.308;2022-07-15T06:56:50;19.50;99.90
32660;DHT22;19064;47.912;12.308;2022-07-15T06:59:19;19.60;99.90
32660;DHT22;19064;47.912;12.308;2022-07-15T07:01:49;19.60;99.90
32660;DHT22;19064;47.912;12.308;2022-07-15T07:04:16;19.60;99.90
32660;DHT22;19064;47.912;12.308;2022-07-15T07:06:43;19.60;99.90
32660;DHT22;19064;47.912;12.308;2022-07-15T07:09:10;19.60;99.90
32660;DHT22;19064;47.912;12.308;2022-07-15T07:11:37;19.60;99.90
32660;DHT22;19064;47.912;12.308;2022-07-15T07:14:04;19.60;99.90
32660;DHT22;19064;47.912;12.308;2022-07-15T07:16:33;19.70;99.90
32660;DHT22;19064;47.912;12.308;2022-07-15T07:19:03;19.70;99.90
32660;DHT22;19064;47.912;12.308;2022-07-15T07:21:31;19.70;99.90
32660;DHT22;19064;47.912;12.308;2022-07-15T07:24:01;19.70;99.90
32660;DHT22;19064;47.912;12.308;2022-07-15T07:26:34;19.70;99.90
32660;DHT22;19064;47.912;12.308;2022-07-15T07:29:05;19.70;99.90
32660;DHT22;19064;47.912;12.308;2022-07-15T07:31:36;19.90;99.90
32660;DHT22;19064;47.912;12.308;2022-07-15T07:34:10;20.00;99.90
32660;DHT22;19064;47.912;12.308;2022-07-15T07:36:38;19.90;99.90
32660;DHT22;19064;47.912;12.308;2022-07-15T07:39:08;19.90;99.90
32660;DHT22;19064;47.912;12.308;2022-07-15T07:41:39;19.90;99.90
32660;DHT22;19064;47.912;12.308;2022-07-15T07:44:07;19.90;99.90
32660;DHT22;19064;47.912;12.308;2022-07-15T07:46:35;20.00;99.90
32660;DHT22;19064;47.912;12.308;2022-07-15T07:49:04;19.90;99.90
32660;DHT22;19064;47.912;12.308;2022-07-15T07:51:32;20.00;99.90
32660;DHT22;19064;47.912;12.308;2022-07-15T07:53:58;20.00;99.90
32660;DHT22;19064;47.912;12.308;2022-07-15T07:56:26;20.10;99.90
32660;DHT22;19064;47.912;12.308;2022-07-15T07:58:55;20.20;99.90
32660;DHT22;19064;47.912;12.308;2022-07-15T08:01:22;20.10;99.90
32660;DHT22;19064;47.912;12.308;2022-07-15T08:03:49;20.10;99.90
32660;DHT22;19064;47.912;12.308;2022-07-15T08:06:16;20.10;99.90
32660;DHT22;19064;47.912;12.308;2022-07-15T08:08:45;20.20;99.90
32660;DHT22;19064;47.912;12.308;2022-07-15T08:11:11;20.30;99.90
32660;DHT22;19064;47.912;12.308;2022-07-15T08:13:39;20.40;99.90
32660;DHT22;19064;47.912;12.308;2022-07-15T08:16:06;20.40;99.90
32660;DHT22;19064;47.912;12.308;2022-07-15T08:18:33;20.40;99.90
32660;DHT22;19064;47.912;12.308;2022-07-15T08:21:00;20.50;99.90
32660;DHT22;19064;47.912;12.308;2022-07-15T08:23:29;20.50;99.90
32660;DHT22;19064;47.912;12.308;2022-07-15T08:25:58;20.40;99.90
32660;DHT22;19064;47.912;12.308;2022-07-15T08:28:26;20.40;99.90
32660;DHT22;19064;47.912;12.308;2022-07-15T08:30:52;20.40;99.90
32660;DHT22;19064;47.912;12.308;2022-07-15T08:33:19;20.50;99.90
32660;DHT22;19064;47.912;12.308;2022-07-15T08:35:46;20.50;99.90
32660;DHT22;19064;47.912;12.308;2022-07-15T08:38:13;20.60;99.90
32660;DHT22;19064;47.912;12.308;2022-07-15T08:40:40;20.80;99.90
32660;DHT22;19064;47.912;12.308;2022-07-15T08:43:11;20.90;99.90
32660;DHT22;19064;47.912;12.308;2022-07-15T08:45:39;20.90;99.90
32660;DHT22;19064;47.912;12.308;2022-07-15T08:48:08;21.00;99.90
32660;DHT22;19064;47.912;12.308;2022-07-15T08:50:35;21.30;99.90
32660;DHT22;19064;47.912;12.308;2022-07-15T08:53:04;21.50;99.90
32660;DHT22;19064;47.912;12.308;2022-07-15T08:55:31;21.30;99.90
32660;DHT22;19064;47.912;12.308;2022-07-15T08:57:58;21.20;99.90
32660;DHT22;19064;47.912;12.308;2022-07-15T09:00:27;21.20;99.90
32660;DHT22;19064;47.912;12.308;2022-07-15T09:02:59;21.20;99.90
32660;DHT22;19064;47.912;12.308;2022-07-15T09:05:28;21.10;99.90
32660;DHT22;19064;47.912;12.308;2022-07-15T09:07:57;21.10;99.90
32660;DHT22;19064;47.912;12.308;2022-07-15T09:13:08;21.10;99.90
32660;DHT22;19064;47.912;12.308;2022-07-15T09:15:40;21.30;99.90
32660;DHT22;19064;47.912;12.308;2022-07-15T09:18:10;21.40;99.90
32660;DHT22;19064;47.912;12.308;2022-07-15T09:20:40;21.50;99.90
32660;DHT22;19064;47.912;12.308;2022-07-15T09:23:10;21.40;99.90
32660;DHT22;19064;47.912;12.308;2022-07-15T09:25:39;21.60;99.90
32660;DHT22;19064;47.912;12.308;2022-07-15T09:28:07;21.50;99.90
32660;DHT22;19064;47.912;12.308;2022-07-15T09:30:35;21.60;99.90
32660;DHT22;19064;47.912;12.308;2022-07-15T09:33:23;21.70;99.90
32660;DHT22;19064;47.912;12.308;2022-07-15T09:36:13;21.60;99.90
32660;DHT22;19064;47.912;12.308;2022-07-15T09:38:43;21.80;99.90
32660;DHT22;19064;47.912;12.308;2022-07-15T09:41:25;21.90;99.90
32660;DHT22;19064;47.912;12.308;2022-07-15T09:43:55;21.90;99.90
32660;DHT22;19064;47.912;12.308;2022-07-15T09:46:24;22.00;99.90
32660;DHT22;19064;47.912;12.308;2022-07-15T09:48:53;22.00;99.90
32660;DHT22;19064;47.912;12.308;2022-07-15T09:51:21;22.10;99.90
32660;DHT22;19064;47.912;12.308;2022-07-15T09:53:49;22.10;99.90
32660;DHT22;19064;47.912;12.308;2022-07-15T09:56:19;21.80;99.90
32660;DHT22;19064;47.912;12.308;2022-07-15T09:58:52;21.50;99.90
32660;DHT22;19064;47.912;12.308;2022-07-15T10:01:19;21.80;99.90
32660;DHT22;19064;47.912;12.308;2022-07-15T10:03:46;22.30;99.90
32660;DHT22;19064;47.912;12.308;2022-07-15T10:06:17;22.50;99.90
32660;DHT22;19064;47.912;12.308;2022-07-15T10:08:47;22.70;99.90
32660;DHT22;19064;47.912;12.308;2022-07-15T10:11:14;22.80;99.90
32660;DHT22;19064;47.912;12.308;2022-07-15T10:14:31;22.80;99.90
32660;DHT22;19064;47.912;12.308;2022-07-15T10:17:27;22.70;99.90
32660;DHT22;19064;47.912;12.308;2022-07-15T10:23:10;22.90;99.90
32660;DHT22;19064;47.912;12.308;2022-07-15T10:25:55;22.90;99.90
32660;DHT22;19064;47.912;12.308;2022-07-15T10:28:33;22.90;99.90
32660;DHT22;19064;47.912;12.308;2022-07-15T10:31:15;22.80;99.90
32660;DHT22;19064;47.912;12.308;2022-07-15T10:34:16;22.90;99.90
32660;DHT22;19064;47.912;12.308;2022-07-15T10:37:01;23.20;99.90
32660;DHT22;19064;47.912;12.308;2022-07-15T10:39:49;23.30;99.90
32660;DHT22;19064;47.912;12.308;2022-07-15T10:42:16;23.40;99.90
32660;DHT22;19064;47.912;12.308;2022-07-15T10:45:10;23.70;99.90
32660;DHT22;19064;47.912;12.308;2022-07-15T10:47:37;23.90;99.90
32660;DHT22;19064;47.912;12.308;2022-07-15T10:50:34;23.90;99.90
32660;DHT22;19064;47.912;12.308;2022-07-15T10:53:20;23.80;99.90
32660;DHT22;19064;47.912;12.308;2022-07-15T10:55:50;23.40;99.90
32660;DHT22;19064;47.912;12.308;2022-07-15T10:58:18;23.20;99.90
32660;DHT22;19064;47.912;12.308;2022-07-15T11:00:50;23.20;99.90
32660;DHT22;19064;47.912;12.308;2022-07-15T11:03:20;23.20;99.90
32660;DHT22;19064;47.912;12.308;2022-07-15T11:06:05;23.30;99.90
32660;DHT22;19064;47.912;12.308;2022-07-15T11:08:54;23.80;99.90
32660;DHT22;19064;47.912;12.308;2022-07-15T11:11:48;23.80;99.90
32660;DHT22;19064;47.912;12.308;2022-07-15T11:14:42;23.70;99.90
32660;DHT22;19064;47.912;12.308;2022-07-15T11:17:11;23.60;99.90
32660;DHT22;19064;47.912;12.308;2022-07-15T11:19:40;23.90;99.90
32660;DHT22;19064;47.912;12.308;2022-07-15T11:22:08;24.00;99.90
32660;DHT22;19064;47.912;12.308;2022-07-15T11:24:37;24.00;99.90
32660;DHT22;19064;47.912;12.308;2022-07-15T11:27:06;23.80;99.90
32660;DHT22;19064;47.912;12.308;2022-07-15T11:29:46;23.80;99.90
32660;DHT22;19064;47.912;12.308;2022-07-15T11:32:16;23.90;99.90
32660;DHT22;19064;47.912;12.308;2022-07-15T11:34:45;24.10;99.90
32660;DHT22;19064;47.912;12.308;2022-07-15T11:37:14;23.80;99.90
32660;DHT22;19064;47.912;12.308;2022-07-15T11:39:47;23.60;99.90
32660;DHT22;19064;47.912;12.308;2022-07-15T11:42:23;23.20;99.90
32660;DHT22;19064;47.912;12.308;2022-07-15T11:45:09;23.00;99.90
32660;DHT22;19064;47.912;12.308;2022-07-15T11:47:51;23.10;99.90
32660;DHT22;19064;47.912;12.308;2022-07-15T11:50:20;23.40;99.90
32660;DHT22;19064;47.912;12.308;2022-07-15T11:52:48;23.50;99.90
32660;DHT22;19064;47.912;12.308;2022-07-15T11:55:19;23.70;99.90
32660;DHT22;19064;47.912;12.308;2022-07-15T11:57:49;23.70;99.90
32660;DHT22;19064;47.912;12.308;2022-07-15T12:00:28;23.70;99.90
32660;DHT22;19064;47.912;12.308;2022-07-15T12:03:07;23.70;99.90
32660;DHT22;19064;47.912;12.308;2022-07-15T12:05:35;23.70;99.90
32660;DHT22;19064;47.912;12.308;2022-07-15T12:08:03;23.90;99.90
32660;DHT22;19064;47.912;12.308;2022-07-15T12:10:35;24.00;99.90
32660;DHT22;19064;47.912;12.308;2022-07-15T12:13:05;24.00;99.90
32660;DHT22;19064;47.912;12.308;2022-07-15T12:15:34;24.20;99.90
32660;DHT22;19064;47.912;12.308;2022-07-15T12:18:03;24.30;99.90
32660;DHT22;19064;47.912;12.308;2022-07-15T12:20:32;24.40;99.90
32660;DHT22;19064;47.912;12.308;2022-07-15T12:23:04;24.30;99.90
32660;DHT22;19064;47.912;12.308;2022-07-15T12:25:33;24.30;99.90
32660;DHT22;19064;47.912;12.308;2022-07-15T12:28:01;24.30;99.90
32660;DHT22;19064;47.912;12.308;2022-07-15T12:30:35;24.00;99.90
32660;DHT22;19064;47.912;12.308;2022-07-15T12:33:19;24.00;99.90
32660;DHT22;19064;47.912;12.308;2022-07-15T12:35:47;24.00;99.90
32660;DHT22;19064;47.912;12.308;2022-07-15T12:38:33;24.20;99.90
32660;DHT22;19064;47.912;12.308;2022-07-15T12:41:05;24.30;99.90
32660;DHT22;19064;47.912;12.308;2022-07-15T12:43:51;24.30;99.90
32660;DHT22;19064;47.912;12.308;2022-07-15T12:46:21;24.40;99.90
32660;DHT22;19064;47.912;12.308;2022-07-15T12:49:10;24.30;99.90
32660;DHT22;19064;47.912;12.308;2022-07-15T12:51:38;24.20;99.90
32660;DHT22;19064;47.912;12.308;2022-07-15T12:54:06;24.10;99.90
32660;DHT22;19064;47.912;12.308;2022-07-15T12:56:50;24.10;99.90
32660;DHT22;19064;47.912;12.308;2022-07-15T12:59:18;24.30;99.90
32660;DHT22;19064;47.912;12.308;2022-07-15T13:04:40;24.50;99.90
32660;DHT22;19064;47.912;12.308;2022-07-15T13:07:09;24.60;99.90
32660;DHT22;19064;47.912;12.308;2022-07-15T13:09:37;24.60;99.90
32660;DHT22;19064;47.912;12.308;2022-07-15T13:12:04;24.50;99.90
32660;DHT22;19064;47.912;12.308;2022-07-15T13:14:31;24.50;99.90
32660;DHT22;19064;47.912;12.308;2022-07-15T13:17:00;24.60;99.90
32660;DHT22;19064;47.912;12.308;2022-07-15T13:19:28;24.60;99.90
32660;DHT22;19064;47.912;12.308;2022-07-15T13:22:01;24.40;99.90
32660;DHT22;19064;47.912;12.308;2022-07-15T13:24:32;24.40;99.90
32660;DHT22;19064;47.912;12.308;2022-07-15T13:26:59;24.30;99.90
32660;DHT22;19064;47.912;12.308;2022-07-15T13:29:25;24.30;99.90
32660;DHT22;19064;47.912;12.308;2022-07-15T13:31:53;24.20;99.90
32660;DHT22;19064;47.912;12.308;2022-07-15T13:34:19;24.10;99.90
32660;DHT22;19064;47.912;12.308;2022-07-15T13:36:46;24.00;99.90
32660;DHT22;19064;47.912;12.308;2022-07-15T13:39:14;24.00;99.90
32660;DHT22;19064;47.912;12.308;2022-07-15T13:41:41;24.10;99.90
32660;DHT22;19064;47.912;12.308;2022-07-15T13:44:10;24.40;99.90
32660;DHT22;19064;47.912;12.308;2022-07-15T13:46:38;24.20;99.90
32660;DHT22;19064;47.912;12.308;2022-07-15T13:49:06;24.10;99.90
32660;DHT22;19064;47.912;12.308;2022-07-15T13:51:33;23.90;99.90
32660;DHT22;19064;47.912;12.308;2022-07-15T13:54:00;23.80;99.90
32660;DHT22;19064;47.912;12.308;2022-07-15T13:56:29;23.70;99.90
32660;DHT22;19064;47.912;12.308;2022-07-15T13:58:57;23.60;99.90
32660;DHT22;19064;47.912;12.308;2022-07-15T14:01:28;23.90;99.90
32660;DHT22;19064;47.912;12.308;2022-07-15T14:03:57;23.90;99.90
32660;DHT22;19064;47.912;12.308;2022-07-15T14:06:24;24.00;99.90
32660;DHT22;19064;47.912;12.308;2022-07-15T14:08:51;24.10;99.90
32660;DHT22;19064;47.912;12.308;2022-07-15T14:11:19;24.00;99.90
32660;DHT22;19064;47.912;12.308;2022-07-15T14:13:47;23.90;99.90
32660;DHT22;19064;47.912;12.308;2022-07-15T14:16:16;23.90;99.90
32660;DHT22;19064;47.912;12.308;2022-07-15T14:18:43;23.80;99.90
32660;DHT22;19064;47.912;12.308;2022-07-15T14:21:12;23.80;99.90
32660;DHT22;19064;47.912;12.308;2022-07-15T14:23:40;24.00;99.90
32660;DHT22;19064;47.912;12.308;2022-07-15T14:26:08;24.10;99.90
32660;DHT22;19064;47.912;12.308;2022-07-15T14:28:38;24.10;99.90
32660;DHT22;19064;47.912;12.308;2022-07-15T14:31:11;24.20;99.90
32660;DHT22;19064;47.912;12.308;2022-07-15T14:33:40;24.10;99.90
32660;DHT22;19064;47.912;12.308;2022-07-15T14:36:10;24.10;99.90
32660;DHT22;19064;47.912;12.308;2022-07-15T14:38:46;24.10;99.90
32660;DHT22;19064;47.912;12.308;2022-07-15T14:41:14;23.90;99.30
32660;DHT22;19064;47.912;12.308;2022-07-15T14:43:43;23.90;99.50
32660;DHT22;19064;47.912;12.308;2022-07-15T14:46:13;23.90;99.50
32660;DHT22;19064;47.912;12.308;2022-07-15T14:48:42;23.80;99.90
32660;DHT22;19064;47.912;12.308;2022-07-15T14:51:10;23.70;99.90
32660;DHT22;19064;47.912;12.308;2022-07-15T14:53:38;23.70;99.90
32660;DHT22;19064;47.912;12.308;2022-07-15T14:56:06;23.80;99.60
32660;DHT22;19064;47.912;12.308;2022-07-15T14:58:34;23.90;99.90
32660;DHT22;19064;47.912;12.308;2022-07-15T15:01:02;24.00;99.90
32660;DHT22;19064;47.912;12.308;2022-07-15T15:03:30;24.10;99.90
32660;DHT22;19064;47.912;12.308;2022-07-15T15:05:58;24.20;99.90
32660;DHT22;19064;47.912;12.308;2022-07-15T15:08:26;24.20;99.90
32660;DHT22;19064;47.912;12.308;2022-07-15T15:10:55;24.20;98.90
32660;DHT22;19064;47.912;12.308;2022-07-15T15:13:23;24.20;99.50
32660;DHT22;19064;47.912;12.308;2022-07-15T15:15:51;24.30;99.70
32660;DHT22;19064;47.912;12.308;2022-07-15T15:18:19;24.50;97.80
32660;DHT22;19064;47.912;12.308;2022-07-15T15:20:59;24.50;97.70
32660;DHT22;19064;47.912;12.308;2022-07-15T15:23:28;24.40;96.70
32660;DHT22;19064;47.912;12.308;2022-07-15T15:25:56;24.30;97.90
32660;DHT22;19064;47.912;12.308;2022-07-15T15:28:42;24.50;98.20
32660;DHT22;19064;47.912;12.308;2022-07-15T15:31:10;24.90;98.50
32660;DHT22;19064;47.912;12.308;2022-07-15T15:33:37;25.20;97.20
32660;DHT22;19064;47.912;12.308;2022-07-15T15:36:06;25.10;96.10
32660;DHT22;19064;47.912;12.308;2022-07-15T15:38:33;25.10;95.80
32660;DHT22;19064;47.912;12.308;2022-07-15T15:41:01;25.30;95.20
32660;DHT22;19064;47.912;12.308;2022-07-15T15:43:28;25.40;96.20